sensor_id;sensor_type;location;lat;lon;timestamp;P1;durP1;ratioP1;P2;durP2;ratioP2
55220;SDS011;41089;51.448;6.604;2022-12-17T00:01:03;83.25;;;36.35;;
55220;SDS011;41089;51.448;6.604;2022-12-17T00:07:42;84.35;;;36.08;;
55220;SDS011;41089;51.448;6.604;2022-12-17T00:14:02;96.85;;;36.05;;
55220;SDS011;41089;51.448;6.604;2022-12-17T00:20:24;77.15;;;32.72;;
55220;SDS011;41089;51.448;6.604;2022-12-17T00:26:50;74.28;;;33.75;;
55220;SDS011;41089;51.448;6.604;2022-12-17T00:33:15;83.90;;;32.80;;
55220;SDS011;41089;51.448;6.604;2022-12-17T00:39:37;87.95;;;36.20;;
55220;SDS011;41089;51.448;6.604;2022-12-17T00:45:57;81.22;;;31.52;;
55220;SDS011;41089;51.448;6.604;2022-12-17T00:52:21;71.43;;;31.23;;
55220;SDS011;41089;51.448;6.604;2022-12-17T00:58:43;77.50;;;32.10;;
55220;SDS011;41089;51.448;6.604;2022-12-17T01:05:03;84.95;;;35.25;;
55220;SDS011;41089;51.448;6.604;2022-12-17T01:11:29;77.75;;;33.67;;
55220;SDS011;41089;51.448;6.604;2022-12-17T01:17:49;90.57;;;33.30;;
55220;SDS011;41089;51.448;6.604;2022-12-17T01:24:11;85.63;;;34.70;;
55220;SDS011;41089;51.448;6.604;2022-12-17T01:30:34;89.55;;;35.42;;
55220;SDS011;41089;51.448;6.604;2022-12-17T01:36:59;93.22;;;35.03;;
55220;SDS011;41089;51.448;6.604;2022-12-17T01:43:31;101.30;;;36.20;;
55220;SDS011;41089;51.448;6.604;2022-12-17T01:49:53;76.38;;;34.97;;
55220;SDS011;41089;51.448;6.604;2022-12-17T01:56:11;75.55;;;34.67;;
55220;SDS011;41089;51.448;6.604;2022-12-17T02:02:37;80.35;;;33.63;;
55220;SDS011;41089;51.448;6.604;2022-12-17T02:15:46;83.93;;;34.22;;
55220;SDS011;41089;51.448;6.604;2022-12-17T02:22:20;84.55;;;33.67;;
55220;SDS011;41089;51.448;6.604;2022-12-17T02:28:43;73.68;;;34.00;;
55220;SDS011;41089;51.448;6.604;2022-12-17T02:35:24;71.40;;;31.48;;
55220;SDS011;41089;51.448;6.604;2022-12-17T02:42:08;67.57;;;30.47;;
55220;SDS011;41089;51.448;6.604;2022-12-17T02:48:28;72.20;;;32.17;;
55220;SDS011;41089;51.448;6.604;2022-12-17T02:54:53;75.75;;;30.98;;
55220;SDS011;41089;51.448;6.604;2022-12-17T03:01:17;72.60;;;30.38;;
55220;SDS011;41089;51.448;6.604;2022-12-17T03:07:40;69.97;;;32.78;;
55220;SDS011;41089;51.448;6.604;2022-12-17T03:14:02;72.88;;;32.03;;
55220;SDS011;41089;51.448;6.604;2022-12-17T03:20:32;60.95;;;30.13;;
55220;SDS011;41089;51.448;6.604;2022-12-17T03:26:56;71.70;;;31.95;;
55220;SDS011;41089;51.448;6.604;2022-12-17T03:33:15;69.13;;;31.63;;
55220;SDS011;41089;51.448;6.604;2022-12-17T03:39:36;73.20;;;34.80;;
55220;SDS011;41089;51.448;6.604;2022-12-17T03:45:56;77.78;;;34.35;;
55220;SDS011;41089;51.448;6.604;2022-12-17T03:52:16;67.25;;;35.00;;
55220;SDS011;41089;51.448;6.604;2022-12-17T03:58:35;79.67;;;35.57;;
55220;SDS011;41089;51.448;6.604;2022-12-17T04:04:54;82.32;;;35.92;;
55220;SDS011;41089;51.448;6.604;2022-12-17T04:11:13;82.97;;;37.95;;
55220;SDS011;41089;51.448;6.604;2022-12-17T04:17:44;77.45;;;37.95;;
55220;SDS011;41089;51.448;6.604;2022-12-17T04:24:03;72.53;;;34.30;;
55220;SDS011;41089;51.448;6.604;2022-12-17T04:30:22;72.88;;;34.85;;
55220;SDS011;41089;51.448;6.604;2022-12-17T04:36:41;73.28;;;37.50;;
55220;SDS011;41089;51.448;6.604;2022-12-17T04:43:04;75.53;;;36.47;;
55220;SDS011;41089;51.448;6.604;2022-12-17T04:49:25;67.75;;;35.92;;
55220;SDS011;41089;51.448;6.604;2022-12-17T04:55:44;68.22;;;36.47;;
55220;SDS011;41089;51.448;6.604;2022-12-17T05:02:03;73.35;;;36.33;;
55220;SDS011;41089;51.448;6.604;2022-12-17T05:08:22;73.43;;;35.05;;
55220;SDS011;41089;51.448;6.604;2022-12-17T05:14:41;75.22;;;36.33;;
55220;SDS011;41089;51.448;6.604;2022-12-17T05:21:00;68.57;;;35.22;;
55220;SDS011;41089;51.448;6.604;2022-12-17T05:27:19;74.05;;;34.45;;
55220;SDS011;41089;51.448;6.604;2022-12-17T05:33:38;69.28;;;36.80;;
55220;SDS011;41089;51.448;6.604;2022-12-17T05:39:57;70.95;;;37.83;;
55220;SDS011;41089;51.448;6.604;2022-12-17T05:46:16;70.60;;;35.63;;
55220;SDS011;41089;51.448;6.604;2022-12-17T05:52:35;65.97;;;35.08;;
55220;SDS011;41089;51.448;6.604;2022-12-17T05:58:54;61.75;;;33.35;;
55220;SDS011;41089;51.448;6.604;2022-12-17T06:05:13;64.43;;;35.17;;
55220;SDS011;41089;51.448;6.604;2022-12-17T06:11:32;66.38;;;33.15;;
55220;SDS011;41089;51.448;6.604;2022-12-17T06:17:54;62.60;;;32.28;;
55220;SDS011;41089;51.448;6.604;2022-12-17T06:24:33;71.97;;;32.70;;
55220;SDS011;41089;51.448;6.604;2022-12-17T06:30:52;60.10;;;31.52;;
55220;SDS011;41089;51.448;6.604;2022-12-17T06:37:12;54.53;;;30.30;;
55220;SDS011;41089;51.448;6.604;2022-12-17T06:43:31;55.03;;;28.00;;
55220;SDS011;41089;51.448;6.604;2022-12-17T06:49:50;53.67;;;29.02;;
55220;SDS011;41089;51.448;6.604;2022-12-17T06:56:30;43.55;;;24.48;;
55220;SDS011;41089;51.448;6.604;2022-12-17T07:02:48;48.67;;;27.02;;
55220;SDS011;41089;51.448;6.604;2022-12-17T07:09:13;48.35;;;26.27;;
55220;SDS011;41089;51.448;6.604;2022-12-17T07:15:32;50.85;;;28.67;;
55220;SDS011;41089;51.448;6.604;2022-12-17T07:21:51;57.30;;;29.73;;
55220;SDS011;41089;51.448;6.604;2022-12-17T07:28:10;47.95;;;27.77;;
55220;SDS011;41089;51.448;6.604;2022-12-17T07:34:29;47.67;;;28.35;;
55220;SDS011;41089;51.448;6.604;2022-12-17T07:40:48;50.42;;;29.23;;
55220;SDS011;41089;51.448;6.604;2022-12-17T07:47:07;46.13;;;25.10;;
55220;SDS011;41089;51.448;6.604;2022-12-17T07:53:27;47.83;;;26.08;;
55220;SDS011;41089;51.448;6.604;2022-12-17T07:59:45;45.17;;;25.17;;
55220;SDS011;41089;51.448;6.604;2022-12-17T08:06:04;42.55;;;21.67;;
55220;SDS011;41089;51.448;6.604;2022-12-17T08:12:24;43.13;;;24.05;;
55220;SDS011;41089;51.448;6.604;2022-12-17T08:18:43;53.05;;;27.05;;
55220;SDS011;41089;51.448;6.604;2022-12-17T08:25:02;50.97;;;25.73;;
55220;SDS011;41089;51.448;6.604;2022-12-17T08:31:22;46.80;;;23.85;;
55220;SDS011;41089;51.448;6.604;2022-12-17T08:37:42;47.10;;;25.03;;
55220;SDS011;41089;51.448;6.604;2022-12-17T08:44:01;47.30;;;23.90;;
55220;SDS011;41089;51.448;6.604;2022-12-17T08:50:20;45.20;;;24.60;;
55220;SDS011;41089;51.448;6.604;2022-12-17T08:56:39;39.75;;;23.20;;
55220;SDS011;41089;51.448;6.604;2022-12-17T09:02:58;38.42;;;20.30;;
55220;SDS011;41089;51.448;6.604;2022-12-17T09:09:18;42.95;;;21.55;;
55220;SDS011;41089;51.448;6.604;2022-12-17T09:15:37;41.83;;;21.08;;
55220;SDS011;41089;51.448;6.604;2022-12-17T09:21:56;48.17;;;22.27;;
55220;SDS011;41089;51.448;6.604;2022-12-17T09:28:15;50.47;;;25.67;;
55220;SDS011;41089;51.448;6.604;2022-12-17T09:34:34;52.58;;;25.98;;
55220;SDS011;41089;51.448;6.604;2022-12-17T09:40:53;49.20;;;24.95;;
55220;SDS011;41089;51.448;6.604;2022-12-17T09:47:30;54.38;;;24.98;;
55220;SDS011;41089;51.448;6.604;2022-12-17T09:53:53;59.05;;;27.10;;
55220;SDS011;41089;51.448;6.604;2022-12-17T10:00:16;61.70;;;25.73;;
55220;SDS011;41089;51.448;6.604;2022-12-17T10:06:37;61.00;;;26.45;;
55220;SDS011;41089;51.448;6.604;2022-12-17T10:12:56;55.67;;;25.50;;
55220;SDS011;41089;51.448;6.604;2022-12-17T10:19:18;47.35;;;23.75;;
55220;SDS011;41089;51.448;6.604;2022-12-17T10:25:49;50.95;;;22.25;;
55220;SDS011;41089;51.448;6.604;2022-12-17T10:38:34;50.80;;;25.85;;
55220;SDS011;41089;51.448;6.604;2022-12-17T10:44:53;46.53;;;23.23;;
55220;SDS011;41089;51.448;6.604;2022-12-17T10:51:19;56.33;;;24.60;;
55220;SDS011;41089;51.448;6.604;2022-12-17T10:57:52;49.47;;;24.55;;
55220;SDS011;41089;51.448;6.604;2022-12-17T11:04:21;47.38;;;23.00;;
55220;SDS011;41089;51.448;6.604;2022-12-17T11:10:41;51.45;;;26.30;;
55220;SDS011;41089;51.448;6.604;2022-12-17T11:17:02;47.70;;;24.45;;
55220;SDS011;41089;51.448;6.604;2022-12-17T11:23:22;56.53;;;25.83;;
55220;SDS011;41089;51.448;6.604;2022-12-17T11:29:41;58.78;;;27.25;;
55220;SDS011;41089;51.448;6.604;2022-12-17T11:42:39;51.42;;;27.13;;
55220;SDS011;41089;51.448;6.604;2022-12-17T11:49:16;58.55;;;26.65;;
55220;SDS011;41089;51.448;6.604;2022-12-17T11:56:05;55.03;;;25.60;;
55220;SDS011;41089;51.448;6.604;2022-12-17T12:09:13;51.50;;;24.90;;
55220;SDS011;41089;51.448;6.604;2022-12-17T12:21:57;54.28;;;24.55;;
55220;SDS011;41089;51.448;6.604;2022-12-17T12:35:15;67.53;;;26.27;;
55220;SDS011;41089;51.448;6.604;2022-12-17T12:49:16;48.72;;;24.88;;
55220;SDS011;41089;51.448;6.604;2022-12-17T12:55:06;50.35;;;23.63;;
55220;SDS011;41089;51.448;6.604;2022-12-17T13:01:33;55.95;;;27.77;;
55220;SDS011;41089;51.448;6.604;2022-12-17T13:08:01;48.88;;;25.50;;
55220;SDS011;41089;51.448;6.604;2022-12-17T13:14:12;56.70;;;26.27;;
55220;SDS011;41089;51.448;6.604;2022-12-17T13:20:20;48.33;;;26.15;;
55220;SDS011;41089;51.448;6.604;2022-12-17T13:32:41;53.72;;;29.38;;
55220;SDS011;41089;51.448;6.604;2022-12-17T13:45:02;63.13;;;29.85;;
55220;SDS011;41089;51.448;6.604;2022-12-17T13:51:03;59.80;;;30.67;;
55220;SDS011;41089;51.448;6.604;2022-12-17T13:57:08;54.38;;;28.80;;
55220;SDS011;41089;51.448;6.604;2022-12-17T14:03:10;51.88;;;27.70;;
55220;SDS011;41089;51.448;6.604;2022-12-17T14:09:17;50.45;;;26.65;;
55220;SDS011;41089;51.448;6.604;2022-12-17T14:15:23;54.42;;;26.92;;
55220;SDS011;41089;51.448;6.604;2022-12-17T14:21:26;50.00;;;26.75;;
55220;SDS011;41089;51.448;6.604;2022-12-17T14:27:32;48.65;;;26.63;;
55220;SDS011;41089;51.448;6.604;2022-12-17T14:33:34;45.03;;;27.88;;
55220;SDS011;41089;51.448;6.604;2022-12-17T14:39:36;56.25;;;31.05;;
55220;SDS011;41089;51.448;6.604;2022-12-17T14:46:16;48.60;;;27.83;;
55220;SDS011;41089;51.448;6.604;2022-12-17T14:52:34;51.72;;;30.00;;
55220;SDS011;41089;51.448;6.604;2022-12-17T14:58:43;51.90;;;30.63;;
55220;SDS011;41089;51.448;6.604;2022-12-17T15:04:44;55.30;;;30.60;;
55220;SDS011;41089;51.448;6.604;2022-12-17T15:10:44;54.55;;;29.25;;
55220;SDS011;41089;51.448;6.604;2022-12-17T15:16:45;54.70;;;30.77;;
55220;SDS011;41089;51.448;6.604;2022-12-17T15:22:45;57.53;;;28.67;;
55220;SDS011;41089;51.448;6.604;2022-12-17T15:28:47;55.67;;;31.88;;
55220;SDS011;41089;51.448;6.604;2022-12-17T15:34:47;52.60;;;29.08;;
55220;SDS011;41089;51.448;6.604;2022-12-17T15:40:49;48.15;;;28.35;;
55220;SDS011;41089;51.448;6.604;2022-12-17T15:46:50;53.53;;;30.90;;
55220;SDS011;41089;51.448;6.604;2022-12-17T15:52:50;53.73;;;31.80;;
55220;SDS011;41089;51.448;6.604;2022-12-17T15:58:50;50.73;;;29.73;;
55220;SDS011;41089;51.448;6.604;2022-12-17T16:04:51;50.78;;;30.23;;
55220;SDS011;41089;51.448;6.604;2022-12-17T16:10:51;50.05;;;28.45;;
55220;SDS011;41089;51.448;6.604;2022-12-17T16:16:52;47.87;;;29.47;;
55220;SDS011;41089;51.448;6.604;2022-12-17T16:22:52;52.65;;;30.80;;
55220;SDS011;41089;51.448;6.604;2022-12-17T16:28:53;51.15;;;29.42;;
55220;SDS011;41089;51.448;6.604;2022-12-17T16:34:53;53.72;;;27.45;;
55220;SDS011;41089;51.448;6.604;2022-12-17T16:40:58;51.63;;;29.33;;
55220;SDS011;41089;51.448;6.604;2022-12-17T16:47:00;51.90;;;29.83;;
55220;SDS011;41089;51.448;6.604;2022-12-17T16:53:00;51.72;;;28.08;;
55220;SDS011;41089;51.448;6.604;2022-12-17T16:59:01;71.07;;;36.70;;
55220;SDS011;41089;51.448;6.604;2022-12-17T17:05:03;62.22;;;33.42;;
55220;SDS011;41089;51.448;6.604;2022-12-17T17:11:11;87.28;;;43.97;;
55220;SDS011;41089;51.448;6.604;2022-12-17T17:17:20;77.85;;;42.55;;
55220;SDS011;41089;51.448;6.604;2022-12-17T17:23:21;73.00;;;40.70;;
55220;SDS011;41089;51.448;6.604;2022-12-17T17:29:21;64.38;;;37.08;;
55220;SDS011;41089;51.448;6.604;2022-12-17T17:35:22;70.15;;;38.33;;
55220;SDS011;41089;51.448;6.604;2022-12-17T17:41:24;64.13;;;36.53;;
55220;SDS011;41089;51.448;6.604;2022-12-17T17:47:25;68.18;;;34.15;;
55220;SDS011;41089;51.448;6.604;2022-12-17T17:53:29;58.15;;;31.45;;
55220;SDS011;41089;51.448;6.604;2022-12-17T17:59:29;59.87;;;32.30;;
55220;SDS011;41089;51.448;6.604;2022-12-17T18:05:29;55.25;;;32.35;;
55220;SDS011;41089;51.448;6.604;2022-12-17T18:11:30;52.23;;;31.80;;
55220;SDS011;41089;51.448;6.604;2022-12-17T18:17:31;59.67;;;31.35;;
55220;SDS011;41089;51.448;6.604;2022-12-17T18:23:32;61.87;;;31.73;;
55220;SDS011;41089;51.448;6.604;2022-12-17T18:29:33;55.22;;;29.65;;
55220;SDS011;41089;51.448;6.604;2022-12-17T18:35:33;59.53;;;32.13;;
55220;SDS011;41089;51.448;6.604;2022-12-17T18:41:33;50.80;;;29.67;;
55220;SDS011;41089;51.448;6.604;2022-12-17T18:47:52;53.83;;;30.45;;
55220;SDS011;41089;51.448;6.604;2022-12-17T18:53:56;69.53;;;37.40;;
55220;SDS011;41089;51.448;6.604;2022-12-17T18:59:58;67.63;;;36.22;;
55220;SDS011;41089;51.448;6.604;2022-12-17T19:06:03;65.23;;;36.33;;
55220;SDS011;41089;51.448;6.604;2022-12-17T19:12:04;61.38;;;34.03;;
55220;SDS011;41089;51.448;6.604;2022-12-17T19:18:06;67.07;;;36.90;;
55220;SDS011;41089;51.448;6.604;2022-12-17T19:24:10;58.47;;;34.27;;
55220;SDS011;41089;51.448;6.604;2022-12-17T19:30:12;56.78;;;34.85;;
55220;SDS011;41089;51.448;6.604;2022-12-17T19:36:13;54.60;;;31.60;;
55220;SDS011;41089;51.448;6.604;2022-12-17T19:42:15;68.20;;;35.95;;
55220;SDS011;41089;51.448;6.604;2022-12-17T19:48:25;56.07;;;32.27;;
55220;SDS011;41089;51.448;6.604;2022-12-17T19:54:25;55.43;;;31.17;;
55220;SDS011;41089;51.448;6.604;2022-12-17T20:00:25;50.83;;;30.30;;
55220;SDS011;41089;51.448;6.604;2022-12-17T20:06:30;49.72;;;30.60;;
55220;SDS011;41089;51.448;6.604;2022-12-17T20:12:31;56.97;;;31.17;;
55220;SDS011;41089;51.448;6.604;2022-12-17T20:18:31;53.85;;;29.85;;
55220;SDS011;41089;51.448;6.604;2022-12-17T20:24:34;50.27;;;29.27;;
55220;SDS011;41089;51.448;6.604;2022-12-17T20:30:37;63.03;;;31.90;;
55220;SDS011;41089;51.448;6.604;2022-12-17T20:36:40;50.65;;;27.85;;
55220;SDS011;41089;51.448;6.604;2022-12-17T20:42:40;50.05;;;28.23;;
55220;SDS011;41089;51.448;6.604;2022-12-17T20:48:41;49.53;;;27.67;;
55220;SDS011;41089;51.448;6.604;2022-12-17T20:54:42;49.08;;;27.67;;
55220;SDS011;41089;51.448;6.604;2022-12-17T21:00:43;41.97;;;22.43;;
55220;SDS011;41089;51.448;6.604;2022-12-17T21:06:44;43.30;;;24.33;;
55220;SDS011;41089;51.448;6.604;2022-12-17T21:12:46;36.05;;;21.55;;
55220;SDS011;41089;51.448;6.604;2022-12-17T21:19:05;40.05;;;22.23;;
55220;SDS011;41089;51.448;6.604;2022-12-17T21:25:06;34.90;;;20.42;;
55220;SDS011;41089;51.448;6.604;2022-12-17T21:31:23;35.33;;;18.65;;
55220;SDS011;41089;51.448;6.604;2022-12-17T21:37:28;32.17;;;18.33;;
55220;SDS011;41089;51.448;6.604;2022-12-17T21:43:28;27.73;;;16.53;;
55220;SDS011;41089;51.448;6.604;2022-12-17T21:49:29;31.70;;;18.98;;
55220;SDS011;41089;51.448;6.604;2022-12-17T21:55:29;28.50;;;16.35;;
55220;SDS011;41089;51.448;6.604;2022-12-17T22:01:31;28.75;;;14.75;;
55220;SDS011;41089;51.448;6.604;2022-12-17T22:07:32;32.97;;;16.45;;
55220;SDS011;41089;51.448;6.604;2022-12-17T22:13:33;27.87;;;14.80;;
55220;SDS011;41089;51.448;6.604;2022-12-17T22:19:52;22.40;;;12.40;;
55220;SDS011;41089;51.448;6.604;2022-12-17T22:25:52;22.90;;;13.55;;
55220;SDS011;41089;51.448;6.604;2022-12-17T22:31:53;20.63;;;12.73;;
55220;SDS011;41089;51.448;6.604;2022-12-17T22:38:12;22.83;;;14.10;;
55220;SDS011;41089;51.448;6.604;2022-12-17T22:44:12;22.67;;;13.35;;
55220;SDS011;41089;51.448;6.604;2022-12-17T22:50:12;23.52;;;14.32;;
55220;SDS011;41089;51.448;6.604;2022-12-17T22:56:13;22.52;;;13.25;;
55220;SDS011;41089;51.448;6.604;2022-12-17T23:02:14;25.05;;;13.70;;
55220;SDS011;41089;51.448;6.604;2022-12-17T23:08:16;19.73;;;12.63;;
55220;SDS011;41089;51.448;6.604;2022-12-17T23:14:17;20.45;;;12.85;;
55220;SDS011;41089;51.448;6.604;2022-12-17T23:20:18;19.67;;;11.77;;
55220;SDS011;41089;51.448;6.604;2022-12-17T23:26:20;25.40;;;12.93;;
55220;SDS011;41089;51.448;6.604;2022-12-17T23:32:22;20.13;;;11.60;;
55220;SDS011;41089;51.448;6.604;2022-12-17T23:38:22;20.88;;;12.15;;
55220;SDS011;41089;51.448;6.604;2022-12-17T23:44:23;21.48;;;12.45;;
55220;SDS011;41089;51.448;6.604;2022-12-17T23:50:23;19.95;;;12.15;;
55220;SDS011;41089;51.448;6.604;2022-12-17T23:56:24;19.80;;;12.25;;
